Terminal Aerodrome Forecast
Issued by NWS Sioux Falls, SD

Home | Current Version | Previous Version | Text Only | Print | Product List | Glossary Off
Versions: 1 2 3 4 5 6 7 8 9 10 11 12 13 14 15

000
FTUS43 KFSD 271916 AAC
TAFFSD
TAF AMD
KFSD 271916Z 2719/2818 18010KT P6SM OVC060
     FM272300 15010KT 3SM -SN OVC030
      TEMPO 2723/2803 1SM -SN OVC015
     FM280500 12008KT P6SM OVC025
     FM281500 15014KT P6SM BKN040=

USA.gov is the U.S. government's official web portal to all federal, state and local government web resources and services.